Time;durP1;ratioP1;P1;durP2;ratioP2;P2;SDS_P1;SDS_P2;PMS_P1;PMS_P2;Temp;Humidity;BMP_temperature;BMP_pressure;BME280_temperature;BME280_humidity;BME280_pressure;Samples;Min_cycle;Max_cycle;Signal;HPM_P1;HPM_P2
2021/12/05 00:19:46;;;;;;;19.55;11.98;;;;;;;-2.11;82.14;98851.59;4970512;28;20048;-83
2021/12/05 00:22:23;;;;;;;20.13;11.32;;;;;;;-2.00;81.54;98864.69;4976797;28;20131;-82
2021/12/05 00:24:51;;;;;;;;;;;;;;;-2.03;81.80;98862.88;4961916;28;20120;-82
2021/12/05 00:27:28;;;;;;;21.95;12.57;;;;;;;-2.05;82.02;98857.75;4975306;28;19961;-83
2021/12/05 00:33:12;;;;;;;21.85;12.82;;;;;;;-1.99;82.44;98851.16;4960582;28;20458;-83
2021/12/05 00:56:17;;;;;;;17.52;11.13;;;;;;;-2.18;81.48;98845.47;4946422;28;20062;-82
2021/12/05 01:16:39;;;;;;;19.17;10.80;;;;;;;-2.26;81.35;98831.63;4962273;28;20050;-84
2021/12/05 01:19:08;;;;;;;18.65;11.25;;;;;;;-2.17;81.72;98834.47;4944599;28;20034;-83
2021/12/05 01:21:37;;;;;;;20.33;11.63;;;;;;;-2.17;81.29;98821.78;4957869;28;20030;-83
2021/12/05 01:24:09;;;;;;;19.55;11.48;;;;;;;-2.15;81.45;98832.88;4924947;28;20502;-83
2021/12/05 01:32:13;;;;;;;19.15;11.40;;;;;;;-2.15;82.24;98824.38;4953236;28;20041;-82
2021/12/05 01:34:49;;;;;;;18.55;11.45;;;;;;;-2.12;81.84;98840.56;4977643;28;20046;-81
2021/12/05 02:31:19;;;;;;;16.90;11.63;;;;;;;-2.02;82.53;98838.34;4951209;28;20053;-82
2021/12/05 02:42:06;;;;;;;20.45;12.90;;;;;;;-2.06;82.17;98840.78;4944245;29;20071;-82
2021/12/05 02:44:33;;;;;;;23.63;13.15;;;;;;;-2.08;82.46;98837.31;4948205;28;20050;-83
2021/12/05 02:47:05;;;;;;;19.92;12.27;;;;;;;-2.11;82.88;98826.19;4962604;28;20049;-83
2021/12/05 02:49:32;;;;;;;20.73;13.88;;;;;;;-2.12;82.74;98835.50;4928265;28;20093;-83
2021/12/05 02:52:03;;;;;;;21.88;12.32;;;;;;;-2.07;82.98;98833.09;4962575;28;20040;-83
2021/12/05 02:54:32;;;;;;;20.23;12.70;;;;;;;-2.10;83.28;98838.97;4946825;28;20084;-83
2021/12/05 02:56:59;;;;;;;21.48;13.60;;;;;;;-2.11;83.01;98836.34;4973695;28;20128;-82
2021/12/05 02:59:39;;;;;;;23.25;14.18;;;;;;;-2.12;83.39;98835.50;4964368;28;20034;-82
2021/12/05 03:02:13;;;;;;;23.10;13.48;;;;;;;-2.11;83.76;98841.44;4948969;28;20054;-82
2021/12/05 03:04:46;;;;;;;20.85;13.57;;;;;;;-2.09;83.61;98850.00;4975458;28;20049;-82
2021/12/05 03:07:13;;;;;;;23.60;13.95;;;;;;;-2.08;84.01;98849.16;4962335;28;20049;-82
2021/12/05 03:09:40;;;;;;;21.85;13.75;;;;;;;-2.12;83.43;98844.78;4946769;28;20092;-82
2021/12/05 03:12:09;;;;;;;20.33;13.20;;;;;;;-2.11;83.90;98851.59;4990685;28;20034;-82
2021/12/05 03:14:35;;;;;;;20.13;13.82;;;;;;;-2.12;83.81;98848.19;4959032;28;20452;-82
2021/12/05 03:17:03;;;;;;;19.52;13.02;;;;;;;-2.18;83.79;98850.53;4959233;28;20045;-83
2021/12/05 03:19:29;;;;;;;19.85;13.68;;;;;;;-2.19;84.08;98846.28;4948793;28;20030;-82
2021/12/05 03:21:55;;;;;;;19.80;13.88;;;;;;;-2.18;84.00;98865.78;4964062;28;20081;-83
2021/12/05 03:24:24;;;;;;;23.80;13.73;;;;;;;-2.27;83.92;98852.78;4961760;28;20042;-83
2021/12/05 03:26:52;;;;;;;21.25;13.10;;;;;;;-2.21;84.18;98850.44;4945761;28;20053;-83
2021/12/05 03:29:19;;;;;;;19.35;13.10;;;;;;;-2.15;84.14;98855.75;4945673;28;20036;-82
2021/12/05 03:31:45;;;;;;;20.90;13.07;;;;;;;-2.21;83.74;98849.56;4961420;28;20046;-83
2021/12/05 03:34:12;;;;;;;17.88;11.70;;;;;;;-2.13;83.98;98853.25;4945788;28;20038;-82
2021/12/05 03:36:40;;;;;;;20.10;13.25;;;;;;;-2.24;83.65;98845.28;4962136;28;20038;-82
2021/12/05 03:39:07;;;;;;;18.50;11.45;;;;;;;-2.13;83.56;98863.41;4995149;28;20088;-82
2021/12/05 03:41:33;;;;;;;16.70;11.48;;;;;;;-2.20;83.32;98862.34;4945921;28;20065;-82
2021/12/05 03:43:59;;;;;;;18.55;12.18;;;;;;;-2.25;83.54;98853.69;4945159;28;20030;-82
2021/12/05 03:46:26;;;;;;;18.27;11.35;;;;;;;-2.17;83.48;98852.25;4945781;28;20070;-82
2021/12/05 03:48:57;;;;;;;18.38;11.50;;;;;;;-2.22;83.57;98856.34;4945710;28;20034;-82
2021/12/05 03:51:23;;;;;;;17.48;12.07;;;;;;;-2.21;83.43;98859.72;4966257;28;20054;-82
2021/12/05 03:53:49;;;;;;;15.98;11.45;;;;;;;-2.13;83.54;98865.94;4964151;28;20067;-84
2021/12/05 03:56:16;;;;;;;16.95;11.85;;;;;;;-2.25;83.17;98868.06;4978861;28;20033;-83
2021/12/05 03:58:42;;;;;;;20.38;10.65;;;;;;;-2.26;82.95;98871.41;4980620;28;20052;-82
2021/12/05 04:01:10;;;;;;;21.95;11.02;;;;;;;-2.23;82.99;98877.47;4980274;28;20429;-84
2021/12/05 04:03:38;;;;;;;16.75;10.50;;;;;;;-2.23;83.08;98881.69;4980370;28;20029;-84
2021/12/05 04:06:04;;;;;;;19.65;11.50;;;;;;;-2.27;82.64;98874.78;4955673;28;20046;-83
2021/12/05 04:08:32;;;;;;;16.17;10.60;;;;;;;-2.30;82.85;98858.59;4960288;28;20041;-84
2021/12/05 04:10:59;;;;;;;;;;;;;;;-2.23;82.61;98876.63;4954583;28;20067;-83
2021/12/05 04:13:27;;;;;;;16.40;10.45;;;;;;;-2.29;82.53;98872.19;4950910;28;19919;-82
2021/12/05 04:15:54;;;;;;;18.85;10.60;;;;;;;-2.24;82.36;98875.75;4988443;28;20038;-82
2021/12/05 04:18:20;;;;;;;14.30;10.10;;;;;;;-2.38;82.47;98874.44;4958094;28;20033;-83
2021/12/05 04:20:47;;;;;;;15.68;11.18;;;;;;;-2.38;82.47;98885.44;4979934;28;20123;-83
2021/12/05 04:23:13;;;;;;;17.52;11.13;;;;;;;-2.33;82.99;98872.91;4984078;28;20074;-84
2021/12/05 04:25:39;;;;;;;14.95;10.38;;;;;;;-2.30;82.71;98881.47;4962248;28;20049;-82
2021/12/05 04:28:06;;;;;;;16.52;11.20;;;;;;;-2.35;82.51;98877.91;4955818;28;20038;-84
2021/12/05 04:30:34;;;;;;;15.88;10.45;;;;;;;-2.34;82.87;98894.91;4957635;28;20061;-83
2021/12/05 04:32:59;;;;;;;18.80;11.20;;;;;;;-2.39;82.47;98877.75;4987159;28;20038;-84
2021/12/05 04:35:26;;;;;;;15.38;10.32;;;;;;;-2.39;82.64;98891.31;4958112;28;20100;-83
2021/12/05 04:37:51;;;;;;;13.23;10.52;;;;;;;-2.35;82.31;98884.66;4979375;28;20480;-83
2021/12/05 04:40:17;;;;;;;14.02;9.20;;;;;;;-2.47;82.18;98871.56;4963635;28;20128;-83
2021/12/05 04:42:46;;;;;;;14.50;9.52;;;;;;;-2.40;82.41;98888.72;4981456;28;20386;-83
2021/12/05 04:45:17;;;;;;;15.10;10.75;;;;;;;-2.39;82.69;98881.16;4971910;28;20053;-83
2021/12/05 04:47:45;;;;;;;16.70;10.48;;;;;;;-2.37;82.78;98877.00;4967937;28;20035;-84
2021/12/05 04:50:11;;;;;;;15.93;10.20;;;;;;;-2.45;82.80;98885.16;4942141;28;20047;-83
2021/12/05 04:52:37;;;;;;;15.13;10.52;;;;;;;-2.37;82.66;98886.31;4974068;28;20101;-82
2021/12/05 04:55:05;;;;;;;16.80;11.60;;;;;;;-2.38;82.30;98882.91;4963223;28;20074;-83
2021/12/05 04:57:30;;;;;;;15.43;10.32;;;;;;;-2.39;82.52;98893.00;4963093;28;20130;-83
2021/12/05 04:59:56;;;;;;;20.00;11.40;;;;;;;-2.39;82.75;98896.38;4950296;28;20129;-82
2021/12/05 05:02:22;;;;;;;15.35;10.50;;;;;;;-2.38;83.07;98904.91;4963695;28;20073;-83
2021/12/05 05:04:49;;;;;;;14.40;10.35;;;;;;;-2.37;82.86;98899.88;4955887;28;20490;-84
2021/12/05 05:07:24;;;;;;;16.35;10.85;;;;;;;-2.38;82.84;98902.38;4945872;28;20064;-83
2021/12/05 05:09:52;;;;;;;16.35;10.23;;;;;;;-2.31;83.33;98902.59;4960906;28;20199;-84
2021/12/05 05:12:18;;;;;;;17.35;10.35;;;;;;;-2.31;83.06;98899.22;4976081;28;20038;-82
2021/12/05 05:14:44;;;;;;;16.67;10.10;;;;;;;-2.27;83.11;98908.66;4964463;28;20053;-82
2021/12/05 05:17:10;;;;;;;17.75;11.00;;;;;;;-2.18;83.09;98918.28;4983575;28;20041;-84
2021/12/05 05:19:40;;;;;;;16.38;11.02;;;;;;;-2.16;82.90;98916.66;4998514;28;20045;-84
2021/12/05 05:22:23;;;;;;;16.52;10.40;;;;;;;-2.24;82.34;98925.72;4984338;28;20460;-83
2021/12/05 05:39:21;;;;;;;17.95;10.50;;;;;;;-2.24;82.64;98934.19;4962984;28;20490;-83
2021/12/05 05:47:28;;;;;;;16.42;10.90;;;;;;;-2.19;82.59;98931.81;4949962;28;20054;-83
2021/12/05 05:52:12;;;;;;;18.88;10.98;;;;;;;-2.22;82.40;98949.47;4998271;28;20038;-82
2021/12/05 05:54:38;;;;;;;20.13;11.02;;;;;;;-2.27;82.46;98941.69;4979820;28;20038;-83
2021/12/05 05:57:20;;;;;;;18.27;11.35;;;;;;;-2.24;82.17;98951.09;4979896;28;20400;-85
2021/12/05 06:00:27;;;;;;;16.45;10.70;;;;;;;-2.23;82.75;98948.63;4981763;28;20078;-82
2021/12/05 06:05:26;;;;;;;14.63;10.60;;;;;;;-2.39;82.30;98957.34;4968587;28;20042;-82
2021/12/05 06:07:52;;;;;;;18.13;10.63;;;;;;;-2.33;82.67;98962.66;4963311;28;20045;-82
2021/12/05 06:10:21;;;;;;;17.95;10.55;;;;;;;-2.30;82.25;98974.59;4981227;28;20056;-81
2021/12/05 06:12:46;;;;;;;17.85;11.55;;;;;;;-2.39;82.56;98971.72;4964347;28;20042;-83
2021/12/05 06:15:14;;;;;;;15.80;10.98;;;;;;;-2.31;82.37;98972.88;4962005;28;20070;-84
2021/12/05 06:17:40;;;;;;;19.20;11.38;;;;;;;-2.38;82.69;98974.34;4944481;28;20070;-84
2021/12/05 06:20:15;;;;;;;17.20;10.45;;;;;;;-2.38;82.66;98976.88;4948039;28;20044;-82
2021/12/05 06:22:41;;;;;;;14.77;10.63;;;;;;;-2.46;82.43;98969.78;4958313;28;20054;-83
2021/12/05 06:25:09;;;;;;;16.40;10.23;;;;;;;-2.33;82.85;98982.13;4978461;28;20417;-83
2021/12/05 06:27:35;;;;;;;17.85;11.10;;;;;;;-2.38;82.46;98976.88;4998159;28;20057;-82
2021/12/05 06:30:10;;;;;;;19.20;11.20;;;;;;;-2.26;82.81;98976.44;4969722;28;20137;-83
2021/12/05 06:38:06;;;;;;;17.02;10.75;;;;;;;-2.31;82.24;98991.53;4970919;28;20437;-83
2021/12/05 06:46:03;;;;;;;19.38;10.80;;;;;;;-2.27;82.79;98984.88;4962771;28;20089;-81
2021/12/05 06:48:23;;;;;;;15.65;10.77;;;;;;;-2.24;82.05;98989.22;4984049;28;20044;-83
2021/12/05 06:50:49;;;;;;;20.13;11.60;;;;;;;-2.25;82.23;98988.31;4957978;28;20427;-83
2021/12/05 06:53:15;;;;;;;17.60;11.13;;;;;;;-2.21;82.10;99002.00;4984104;28;20049;-81
2021/12/05 06:55:41;;;;;;;17.98;11.80;;;;;;;-2.24;82.03;98995.16;4965739;28;20054;-82
2021/12/05 06:58:06;;;;;;;19.27;11.75;;;;;;;-2.24;82.30;99012.09;4982079;28;20101;-83
2021/12/05 07:00:32;;;;;;;18.65;12.18;;;;;;;-2.26;82.20;99008.59;4990742;28;20490;-81
2021/12/05 07:02:58;;;;;;;17.05;11.13;;;;;;;-2.34;81.91;98993.97;4978736;28;20046;-83
2021/12/05 07:07:56;;;;;;;18.55;11.13;;;;;;;-2.25;81.64;99018.81;4975454;28;20038;-82
2021/12/05 07:10:21;;;;;;;20.50;11.65;;;;;;;-2.25;81.18;99012.88;4966469;28;20552;-84
2021/12/05 07:26:09;;;;;;;20.42;12.15;;;;;;;-2.13;81.17;99006.56;4937746;28;20046;-83
2021/12/05 07:42:28;;;;;;;17.52;12.20;;;;;;;-2.44;82.19;99022.34;4995291;28;20069;-84
2021/12/05 07:44:55;;;;;;;19.20;12.05;;;;;;;-2.42;82.48;99037.66;4967761;28;20030;-83
2021/12/05 07:47:29;;;;;;;20.33;12.30;;;;;;;-2.51;82.14;99032.25;4986117;28;20053;-85
2021/12/05 07:49:56;;;;;;;19.48;12.05;;;;;;;-2.51;82.22;99025.50;4995826;28;20498;-85
2021/12/05 07:52:26;;;;;;;18.40;12.48;;;;;;;-2.53;82.28;99018.63;4932341;28;20497;-86
2021/12/05 07:55:09;;;;;;;19.77;12.77;;;;;;;-2.46;81.98;99035.81;4980757;28;20097;-87
2021/12/05 07:57:52;;;;;;;20.13;12.73;;;;;;;-2.57;82.27;99041.38;4947913;28;20061;-84
2021/12/05 08:00:27;;;;;;;16.80;12.98;;;;;;;-2.60;82.58;99038.72;4958974;28;20077;-83
2021/12/05 08:16:40;;;;;;;19.90;12.88;;;;;;;-2.35;81.79;99039.63;4981716;28;20034;-83
2021/12/05 08:19:05;;;;;;;20.60;12.85;;;;;;;-2.37;81.82;99037.03;4962716;28;20049;-85
2021/12/05 08:21:32;;;;;;;17.55;12.30;;;;;;;-2.39;80.86;99051.31;4944469;28;20405;-86
2021/12/05 08:23:58;;;;;;;21.02;12.45;;;;;;;-2.49;81.77;99030.63;4958647;28;20514;-84
2021/12/05 08:26:31;;;;;;;23.73;12.63;;;;;;;-2.31;81.75;99049.09;4946717;28;20094;-83
2021/12/05 08:29:01;;;;;;;19.60;11.73;;;;;;;-2.36;80.58;99055.66;4943802;28;20041;-84
2021/12/05 09:20:35;;;;;;;22.90;13.77;;;;;;;-2.00;80.25;99005.31;4963002;28;20046;-84
2021/12/05 09:28:03;;;;;;;19.88;12.63;;;;;;;-1.94;79.91;99022.44;4956249;28;20050;-80
2021/12/05 09:39:10;;;;;;;21.33;15.88;;;;;;;-2.25;80.35;99021.34;4965916;28;20079;-80
2021/12/05 10:13:55;;;;;;;23.73;15.50;;;;;;;-2.28;82.16;99086.44;4963751;28;20509;-80
2021/12/05 10:17:23;;;;;;;29.95;16.17;;;;;;;-2.34;82.12;99072.72;4968745;28;20042;-81
2021/12/05 10:38:48;;;;;;;28.38;16.50;;;;;;;-2.12;82.77;99076.88;4997461;28;20459;-82
2021/12/05 10:42:13;;;;;;;28.83;16.88;;;;;;;-2.14;82.54;99065.81;4982962;28;20042;-80
2021/12/05 10:44:14;;;;;;;29.80;17.08;;;;;;;-2.22;82.86;99066.34;4966531;28;20042;-81
2021/12/05 10:46:40;;;;;;;30.80;17.38;;;;;;;-2.23;82.32;99065.47;4982222;28;20068;-81
2021/12/05 10:49:14;;;;;;;30.08;16.98;;;;;;;-2.22;83.13;99071.44;4962588;28;20426;-81
2021/12/05 10:51:43;;;;;;;34.35;19.13;;;;;;;-2.13;82.66;99067.53;4947090;28;20409;-80
2021/12/05 10:54:15;;;;;;;31.08;17.73;;;;;;;-2.09;82.34;99060.91;4978050;28;20034;-81
2021/12/05 10:56:44;;;;;;;31.30;17.05;;;;;;;-2.07;82.64;99062.66;4959360;28;20054;-83
2021/12/05 10:59:16;;;;;;;30.85;19.17;;;;;;;-2.00;82.06;99058.69;4973900;28;20041;-82
2021/12/05 11:01:50;;;;;;;30.92;17.40;;;;;;;-1.98;82.26;99063.81;4966127;28;20052;-81
2021/12/05 11:04:26;;;;;;;31.60;17.08;;;;;;;-1.94;82.12;99061.44;4952727;28;20038;-84
2021/12/05 11:06:58;;;;;;;30.63;18.85;;;;;;;-1.93;82.41;99060.63;4967537;28;20072;-79
2021/12/05 11:09:34;;;;;;;29.48;17.58;;;;;;;-2.05;82.13;99061.06;4980916;28;20150;-80
2021/12/05 11:12:08;;;;;;;32.40;18.45;;;;;;;-1.96;82.18;99064.75;4952697;28;20062;-81
2021/12/05 11:14:36;;;;;;;28.73;18.40;;;;;;;-2.02;81.94;99065.38;4958258;28;20057;-81
2021/12/05 11:17:13;;;;;;;30.20;18.88;;;;;;;-1.98;81.82;99074.00;4975154;28;20628;-80
2021/12/05 11:19:38;;;;;;;;;;;;;;;-1.97;81.77;99068.97;4961804;28;20080;-81
2021/12/05 11:22:18;;;;;;;30.75;19.17;;;;;;;-2.01;81.73;99072.22;4961454;28;19989;-80
2021/12/05 11:24:54;;;;;;;32.00;19.63;;;;;;;-1.96;82.18;99069.84;4977627;28;20057;-83
2021/12/05 11:27:37;;;;;;;27.88;16.85;;;;;;;-1.84;82.31;99071.13;4960635;28;20133;-78
2021/12/05 11:30:14;;;;;;;30.83;24.08;;;;;;;-2.32;82.62;99066.00;4976972;28;20046;-80
2021/12/05 11:32:57;;;;;;;32.30;25.23;;;;;;;-2.65;84.49;99073.22;4978529;28;20049;-82
2021/12/05 11:35:33;;;;;;;33.70;25.25;;;;;;;-2.68;85.34;99070.56;4962195;28;20053;-81
2021/12/05 11:38:13;;;;;;;33.30;26.08;;;;;;;-2.71;86.21;99072.97;4972873;28;20097;-79
2021/12/05 11:41:02;;;;;;;33.88;25.95;;;;;;;-2.77;85.89;99075.25;4961405;28;20376;-80
2021/12/05 11:43:42;;;;;;;32.72;25.42;;;;;;;-2.83;86.02;99072.50;4977352;28;20053;-82
2021/12/05 11:46:15;;;;;;;34.10;25.27;;;;;;;-2.79;85.88;99076.00;4960921;28;20046;-81
2021/12/05 11:48:45;;;;;;;32.40;24.25;;;;;;;-2.94;85.67;99061.03;4978748;28;20038;-79
2021/12/05 11:51:20;;;;;;;33.05;23.70;;;;;;;-2.87;86.04;99088.41;4961474;28;20133;-80
2021/12/05 11:53:50;;;;;;;27.02;21.73;;;;;;;-2.96;85.33;99076.22;4977686;28;20106;-83
2021/12/05 11:56:37;;;;;;;30.30;22.98;;;;;;;-2.87;86.26;99083.34;4948992;28;20125;-84
2021/12/05 11:59:29;;;;;;;31.10;24.25;;;;;;;-2.92;85.54;99070.47;4961153;28;20493;-79
2021/12/05 12:02:16;;;;;;;30.55;22.52;;;;;;;-2.92;85.90;99078.06;4994998;28;20404;-81
2021/12/05 12:05:08;;;;;;;31.38;23.27;;;;;;;-2.90;86.08;99075.59;4963657;28;20468;-80
2021/12/05 12:08:02;;;;;;;35.42;24.48;;;;;;;-2.90;86.10;99073.91;4966671;28;20054;-79
2021/12/05 12:10:48;;;;;;;29.85;23.55;;;;;;;-2.96;85.89;99077.88;4969303;28;20065;-80
2021/12/05 12:13:22;;;;;;;34.08;24.60;;;;;;;-2.95;86.20;99080.47;4948095;28;20169;-79
2021/12/05 12:15:58;;;;;;;31.55;24.23;;;;;;;-2.97;85.99;99087.19;4960823;28;20050;-79
2021/12/05 12:18:27;;;;;;;31.15;23.63;;;;;;;-3.00;86.49;99083.66;4979838;28;20034;-79
2021/12/05 12:20:54;;;;;;;32.42;23.33;;;;;;;-2.99;86.59;99083.69;4944856;28;20022;-80
2021/12/05 12:23:21;;;;;;;32.67;24.10;;;;;;;-3.01;86.66;99082.78;4939965;28;20054;-77
2021/12/05 12:25:51;;;;;;;33.20;24.00;;;;;;;-3.01;86.86;99090.41;4960975;28;20057;-78
2021/12/05 12:28:17;;;;;;;35.83;25.67;;;;;;;-3.04;87.31;99089.41;4976658;28;20125;-78
2021/12/05 12:30:45;;;;;;;36.83;24.83;;;;;;;-3.05;86.85;99082.59;4944949;28;20049;-79
2021/12/05 12:33:13;;;;;;;35.33;24.95;;;;;;;-3.00;87.59;99096.34;4960401;28;20038;-79
2021/12/05 12:35:39;;;;;;;35.47;24.40;;;;;;;-3.02;87.81;99100.47;4967930;28;20072;-82
2021/12/05 12:38:08;;;;;;;33.40;24.92;;;;;;;-3.04;87.38;99089.41;4948062;28;20121;-81
2021/12/05 12:40:52;;;;;;;33.55;22.30;;;;;;;-3.02;87.74;99092.84;4960345;28;20038;-81
2021/12/05 12:43:42;;;;;;;36.55;24.15;;;;;;;-2.99;87.63;99098.06;4975900;28;20061;-82
2021/12/05 12:46:24;;;;;;;31.75;22.77;;;;;;;-3.05;87.39;99097.81;4993595;28;20053;-84
2021/12/05 12:48:58;;;;;;;34.72;22.25;;;;;;;-3.09;87.93;99095.16;4976046;28;20409;-81
2021/12/05 12:51:32;;;;;;;36.22;23.77;;;;;;;-3.03;87.63;99091.97;4976197;28;20046;-83
2021/12/05 12:54:01;;;;;;;31.52;23.20;;;;;;;-3.05;87.88;99097.81;4975755;28;20051;-83
2021/12/05 12:56:27;;;;;;;30.35;21.02;;;;;;;-3.05;87.29;99102.91;4993291;28;20054;-82
2021/12/05 12:58:59;;;;;;;34.80;21.63;;;;;;;-3.03;87.55;99107.22;4983903;28;20074;-81
2021/12/05 13:07:24;;;;;;;32.38;22.27;;;;;;;-3.07;87.99;99105.34;4961204;28;20038;-82
2021/12/05 13:12:44;;;;;;;;;;;;;;;-3.06;87.47;99107.09;4978013;28;20457;-82
2021/12/05 13:15:34;;;;;;;31.52;21.73;;;;;;;-3.10;87.53;99101.03;5008221;28;19917;-81
2021/12/05 13:18:08;;;;;;;30.73;21.75;;;;;;;-3.03;87.80;99106.34;4979762;28;20374;-82
2021/12/05 13:20:40;;;;;;;30.30;20.15;;;;;;;-3.05;87.10;99113.03;4978752;28;20042;-81
2021/12/05 13:23:09;;;;;;;31.38;21.70;;;;;;;-3.01;87.05;99114.91;4975890;28;20062;-81
2021/12/05 13:25:56;;;;;;;30.70;20.15;;;;;;;-3.06;87.29;99112.19;5002961;28;20449;-82
2021/12/05 13:28:28;;;;;;;31.20;19.95;;;;;;;-3.08;87.10;99113.78;4975879;28;20054;-81
2021/12/05 13:30:54;;;;;;;31.75;20.67;;;;;;;-3.05;87.10;99111.38;4959605;28;20050;-83
2021/12/05 13:33:22;;;;;;;33.50;20.65;;;;;;;-3.07;87.52;99116.41;4976443;28;20366;-83
2021/12/05 13:35:49;;;;;;;34.63;21.10;;;;;;;-3.09;87.07;99112.91;4978583;28;20050;-86
2021/12/05 13:38:32;;;;;;;29.05;19.83;;;;;;;-3.10;87.38;99115.41;4964692;28;20088;-83
2021/12/05 13:41:15;;;;;;;31.15;20.58;;;;;;;-3.08;86.73;99123.91;4997240;28;20049;-81
2021/12/05 13:43:42;;;;;;;31.35;20.50;;;;;;;-3.11;87.59;99119.59;4979790;28;20476;-82
2021/12/05 13:46:39;;;;;;;28.25;20.13;;;;;;;-3.11;87.48;99123.81;4947794;28;20073;-82
2021/12/05 13:49:31;;;;;;;31.50;20.23;;;;;;;-3.13;86.34;99123.72;4997475;28;20043;-83
2021/12/05 13:52:30;;;;;;;25.83;18.05;;;;;;;-3.23;86.71;99119.09;4963831;28;20065;-84
2021/12/05 13:55:39;;;;;;;29.45;20.67;;;;;;;-3.25;86.70;99124.88;4957272;28;20566;-84
2021/12/05 13:58:24;;;;;;;27.00;19.52;;;;;;;-3.20;86.99;99143.72;4966943;28;20133;-83
2021/12/05 14:01:19;;;;;;;28.33;19.45;;;;;;;-3.23;87.39;99141.91;4979851;28;20038;-84
2021/12/05 14:03:57;;;;;;;29.13;20.40;;;;;;;-3.19;87.20;99141.25;4988687;28;20088;-82
2021/12/05 14:06:39;;;;;;;32.28;21.70;;;;;;;-3.18;86.81;99148.03;5007905;28;20041;-82
2021/12/05 14:09:05;;;;;;;31.42;21.23;;;;;;;-3.18;88.03;99152.25;4998893;28;20444;-81
2021/12/05 14:11:31;;;;;;;31.85;19.85;;;;;;;-3.33;86.93;99127.13;5016732;28;20150;-82
2021/12/05 14:13:56;;;;;;;27.65;19.17;;;;;;;-3.25;87.73;99143.53;4982811;28;20057;-82
2021/12/05 14:16:33;;;;;;;28.52;19.48;;;;;;;-3.32;87.32;99149.13;4985891;28;20049;-84
2021/12/05 14:18:58;;;;;;;29.33;20.33;;;;;;;-3.29;86.85;99149.28;4948146;28;20045;-82
2021/12/05 14:21:26;;;;;;;26.90;19.02;;;;;;;-3.32;87.16;99144.06;4947494;28;20038;-83
2021/12/05 14:23:54;;;;;;;23.90;17.65;;;;;;;-3.30;86.73;99154.25;4958878;28;20058;-82
2021/12/05 14:26:21;;;;;;;26.55;18.73;;;;;;;-3.34;86.26;99146.56;4965190;28;20050;-82
2021/12/05 14:28:57;;;;;;;28.65;15.48;;;;;;;-3.13;86.87;99151.63;4968005;28;20446;-83
2021/12/05 14:31:30;;;;;;;29.05;16.00;;;;;;;-3.08;86.36;99149.28;4960374;28;20049;-81
2021/12/05 14:33:56;;;;;;;26.25;14.88;;;;;;;-3.02;85.80;99151.22;4949405;28;20077;-83
2021/12/05 14:36:33;;;;;;;23.27;13.68;;;;;;;-2.90;85.08;99161.88;4962386;28;20026;-83
2021/12/05 14:39:19;;;;;;;22.88;11.95;;;;;;;-2.82;85.21;99169.00;4998382;28;20042;-81
2021/12/05 14:41:48;;;;;;;25.60;14.45;;;;;;;-2.76;84.82;99173.47;4964871;28;20034;-81
2021/12/05 14:44:15;;;;;;;24.25;14.35;;;;;;;-2.71;84.79;99166.88;4962093;28;20062;-82
2021/12/05 14:47:08;;;;;;;25.60;14.85;;;;;;;-2.68;84.35;99174.63;4977195;28;20050;-82
2021/12/05 14:49:37;;;;;;;23.40;15.50;;;;;;;-2.73;84.36;99167.66;4953961;28;20562;-81
2021/12/05 14:52:03;;;;;;;25.15;15.15;;;;;;;-2.70;84.41;99168.66;4978668;28;20034;-82
2021/12/05 14:54:35;;;;;;;27.63;15.05;;;;;;;-2.68;84.22;99172.09;4978718;28;20041;-84
2021/12/05 14:57:08;;;;;;;27.95;15.05;;;;;;;-2.75;83.86;99165.03;4946806;28;20104;-81
2021/12/05 14:59:34;;;;;;;26.80;15.65;;;;;;;-2.61;84.00;99178.31;4946469;28;20042;-82
2021/12/05 15:02:00;;;;;;;25.90;14.55;;;;;;;-2.57;83.81;99186.13;4947524;28;20133;-81
2021/12/05 15:04:29;;;;;;;24.02;14.70;;;;;;;-2.54;83.84;99187.91;4964867;28;20038;-82
2021/12/05 15:06:55;;;;;;;24.95;14.35;;;;;;;-2.58;83.04;99178.41;4931237;28;20046;-83
2021/12/05 15:09:32;;;;;;;;;;;;;;;-2.60;83.25;99185.97;4935843;28;20050;-82
2021/12/05 15:12:04;;;;;;;26.15;14.95;;;;;;;-2.59;83.04;99184.31;4951976;28;20151;-85
2021/12/05 15:14:30;;;;;;;25.80;14.93;;;;;;;-2.57;83.18;99178.50;4960438;28;20049;-84
2021/12/05 15:16:58;;;;;;;25.63;15.07;;;;;;;-2.58;83.33;99179.28;4961081;28;20030;-82
2021/12/05 15:19:24;;;;;;;24.70;15.30;;;;;;;-2.57;83.17;99185.22;4943639;28;20045;-84
2021/12/05 15:21:50;;;;;;;29.00;15.63;;;;;;;-2.53;83.10;99193.84;4978206;28;20041;-83
2021/12/05 15:24:16;;;;;;;26.30;15.70;;;;;;;-2.53;83.55;99197.25;4970642;28;20065;-81
2021/12/05 15:26:42;;;;;;;26.98;15.38;;;;;;;-2.50;83.87;99196.50;4989269;28;20038;-83
2021/12/05 15:29:08;;;;;;;27.20;15.35;;;;;;;-2.43;83.78;99186.66;4964125;28;20034;-83
2021/12/05 15:31:38;;;;;;;26.38;15.18;;;;;;;-2.38;83.19;99197.88;4949641;28;20116;-86
2021/12/05 15:34:34;;;;;;;26.33;15.63;;;;;;;-2.36;83.43;99203.00;4959637;28;20444;-85
2021/12/05 15:37:09;;;;;;;27.05;15.25;;;;;;;-2.40;83.10;99204.53;4961092;28;20034;-83
2021/12/05 15:39:35;;;;;;;28.98;16.20;;;;;;;-2.35;83.59;99213.22;4951109;28;20124;-83
2021/12/05 15:42:01;;;;;;;25.65;15.50;;;;;;;-2.34;82.97;99211.53;4959902;28;20035;-82
2021/12/05 15:44:36;;;;;;;25.17;15.57;;;;;;;-2.40;82.55;99202.00;4961352;28;20053;-82
2021/12/05 15:47:06;;;;;;;25.77;15.30;;;;;;;-2.34;82.93;99209.00;4943841;28;20042;-83
2021/12/05 15:50:01;;;;;;;22.48;15.05;;;;;;;-2.42;82.80;99210.38;4960634;28;20044;-81
2021/12/05 15:52:33;;;;;;;27.63;15.30;;;;;;;-2.39;82.65;99215.56;4994316;28;20405;-83
2021/12/05 15:54:59;;;;;;;25.20;15.70;;;;;;;-2.44;83.23;99212.84;4994127;28;20038;-82
2021/12/05 15:57:31;;;;;;;25.52;14.70;;;;;;;-2.52;82.73;99209.16;4942729;28;20463;-82
2021/12/05 15:59:59;;;;;;;24.58;15.10;;;;;;;-2.54;82.69;99218.38;4948361;28;20034;-80
2021/12/05 16:02:26;;;;;;;23.70;13.68;;;;;;;-2.53;82.68;99216.69;4962830;28;20080;-83
2021/12/05 16:04:56;;;;;;;25.73;15.55;;;;;;;-2.49;83.33;99216.88;4962534;28;20042;-84
2021/12/05 16:07:25;;;;;;;28.20;16.00;;;;;;;-2.50;83.09;99211.75;4965289;28;20068;-84
2021/12/05 16:09:51;;;;;;;31.90;17.65;;;;;;;-2.50;83.52;99212.59;4959399;28;20081;-81
2021/12/05 16:12:19;;;;;;;29.95;16.67;;;;;;;-2.49;83.26;99211.78;4944094;28;20034;-81
2021/12/05 16:14:46;;;;;;;25.65;15.77;;;;;;;-2.49;83.29;99203.31;4963188;28;20034;-82
2021/12/05 16:17:23;;;;;;;28.35;15.95;;;;;;;-2.45;83.42;99212.78;4944500;28;20073;-83
2021/12/05 16:20:08;;;;;;;29.95;14.90;;;;;;;-2.47;82.97;99222.03;4963216;28;20053;-82
2021/12/05 16:22:54;;;;;;;27.27;15.05;;;;;;;-2.49;83.03;99223.63;4976874;28;20161;-81
2021/12/05 16:25:20;;;;;;;24.60;15.40;;;;;;;-2.53;82.88;99216.69;4984088;28;20177;-82
2021/12/05 16:27:49;;;;;;;23.55;14.02;;;;;;;-2.49;82.72;99228.72;4976222;28;20160;-82
2021/12/05 16:30:23;;;;;;;24.60;15.80;;;;;;;-2.50;83.16;99237.13;4976852;28;20042;-82
2021/12/05 16:32:49;;;;;;;24.17;15.32;;;;;;;-2.60;83.19;99213.91;4959870;28;20037;-83
2021/12/05 16:35:26;;;;;;;25.85;14.85;;;;;;;-2.49;83.02;99229.56;4946513;28;20026;-82
2021/12/05 16:37:52;;;;;;;23.60;14.35;;;;;;;-2.54;83.30;99225.97;4942077;28;20125;-83
2021/12/05 16:40:18;;;;;;;25.17;15.80;;;;;;;-2.54;82.63;99225.97;4982274;28;20129;-84
2021/12/05 16:42:44;;;;;;;25.70;14.82;;;;;;;-2.46;82.86;99234.78;4979885;28;20042;-86
2021/12/05 16:45:11;;;;;;;;;;;;;;;-2.51;83.07;99228.66;4926782;28;20485;-84
2021/12/05 16:47:37;;;;;;;33.28;20.52;;;;;;;-2.58;83.08;99214.81;4996578;28;19941;-82
2021/12/05 16:50:03;;;;;;;;;;;;;;;-2.56;83.22;99233.56;4960347;28;20049;-82
2021/12/05 16:52:33;;;;;;;24.58;14.50;;;;;;;-2.51;83.07;99230.34;4957914;28;20124;-83
2021/12/05 16:55:08;;;;;;;30.80;16.48;;;;;;;-2.51;83.00;99230.34;4947513;28;20128;-82
2021/12/05 16:57:43;;;;;;;25.77;15.63;;;;;;;-2.52;83.28;99223.50;4964211;28;20524;-82
2021/12/05 17:00:19;;;;;;;26.90;14.98;;;;;;;-2.54;83.14;99222.59;4972211;28;20231;-82
2021/12/05 17:03:07;;;;;;;30.20;16.15;;;;;;;-2.48;83.44;99236.38;4977842;28;20038;-81
2021/12/05 17:05:38;;;;;;;25.98;15.98;;;;;;;-2.50;83.32;99232.06;4992847;28;20088;-81
2021/12/05 17:08:14;;;;;;;28.27;16.38;;;;;;;-2.44;82.97;99242.47;4956369;28;20123;-83
2021/12/05 17:10:49;;;;;;;24.58;15.38;;;;;;;-2.50;82.84;99237.13;4976357;28;20053;-82